^^
Meteo Knjazevac Station Historical Data
Daily Summary for August 6, 2021 Units:  Both    English   Metric
Daily Weekly Monthly Yearly Custom
  High: Low: Average:
Temperature: 61.3 °F /  16.3 °C 51.1 °F /  10.6 °C 56.4 °F /  13.6 °C
Dew Point: 47.4 °F /  8.6 °C 44.1 °F /  6.7 °C 46.3 °F /  7.9 °C
Humidity: 77% 59% 69%
Wind Speed: 8mph /  12.9km/h - 2.9mph /  4.7km/h
Wind Gust: 12mph /  19.3km/h - -
Wind- - SW
Pressure: 30.03 in /  1016.8 hPa 29.90 in /  1012.4 hPa -
Precipitation: 0.00 in /  0 mm    
Historical Graphs
 
 
Tabular Data for August 6, 2021
Time Temperature Dew Point Pressure Wind Wind Speed Wind Gust Humidity Rainfall Rate (Hourly) solar Conditions
01:10 61.3 °F /  16.3 °C 46.9 °F /  8.3 °C 29.90in /  1012.4hPa Calm   3mph /  4.8km/h 59% 0.00in /  0mm 0 W/m2
01:20 60.8 °F /  16 °C 46.8 °F /  8.2 °C 29.90in /  1012.4hPa WSW 1mph /  1.6km/h 5mph /  8km/h 60% 0.00in /  0mm 0 W/m2
01:30 60.6 °F /  15.9 °C 46.7 °F /  8.2 °C 29.91in /  1012.8hPa WNW 1mph /  1.6km/h 5mph /  8km/h 60% 0.00in /  0mm 0 W/m2
01:40 60.4 °F /  15.8 °C 46.5 °F /  8.1 °C 29.91in /  1012.8hPa NW 1mph /  1.6km/h 5mph /  8km/h 60% 0.00in /  0mm 0 W/m2
01:50 60.4 °F /  15.8 °C 47.4 °F /  8.6 °C 29.92in /  1013.1hPa NNW 5mph /  8km/h 9mph /  14.5km/h 62% 0.00in /  0mm 0 W/m2
02:00 60.4 °F /  15.8 °C 47.4 °F /  8.6 °C 29.91in /  1012.8hPa WSW 2mph /  3.2km/h 6mph /  9.7km/h 62% 0.00in /  0mm 0 W/m2
02:10 60.3 °F /  15.7 °C 47.2 °F /  8.4 °C 29.92in /  1013.1hPa WSW 2mph /  3.2km/h 4mph /  6.4km/h 62% 0.00in /  0mm 0 W/m2
02:20 60.1 °F /  15.6 °C 47 °F /  8.3 °C 29.92in /  1013.1hPa Calm   5mph /  8km/h 62% 0.00in /  0mm 0 W/m2
02:30 59.9 °F /  15.5 °C 47.3 °F /  8.5 °C 29.92in /  1013.1hPa WNW 1mph /  1.6km/h 6mph /  9.7km/h 63% 0.00in /  0mm 0 W/m2
02:40 59.7 °F /  15.4 °C 47.1 °F /  8.4 °C 29.92in /  1013.1hPa North 2mph /  3.2km/h 2mph /  3.2km/h 63% 0.00in /  0mm 0 W/m2
02:50 59.5 °F /  15.3 °C 46.9 °F /  8.3 °C 29.93in /  1013.4hPa NE 3mph /  4.8km/h 5mph /  8km/h 63% 0.00in /  0mm 0 W/m2
03:00 59.4 °F /  15.2 °C 46.8 °F /  8.2 °C 29.93in /  1013.4hPa NE 2mph /  3.2km/h 5mph /  8km/h 63% 0.00in /  0mm 0 W/m2
03:10 59 °F /  15 °C 46.8 °F /  8.2 °C 29.93in /  1013.4hPa Calm   2mph /  3.2km/h 64% 0.00in /  0mm 0 W/m2
03:20 58.7 °F /  14.8 °C 46.5 °F /  8.1 °C 29.93in /  1013.4hPa Calm   3mph /  4.8km/h 64% 0.00in /  0mm 0 W/m2
03:30 57.9 °F /  14.4 °C 47 °F /  8.3 °C 29.93in /  1013.4hPa Calm   3mph /  4.8km/h 67% 0.00in /  0mm 0 W/m2
03:40 57.4 °F /  14.1 °C 46.9 °F /  8.3 °C 29.94in /  1013.8hPa NNE 1mph /  1.6km/h 3mph /  4.8km/h 68% 0.00in /  0mm 0 W/m2
03:50 57 °F /  13.9 °C 46.9 °F /  8.3 °C 29.94in /  1013.8hPa Calm   3mph /  4.8km/h 69% 0.00in /  0mm 0 W/m2
04:00 56.5 °F /  13.6 °C 46.4 °F /  8 °C 29.94in /  1013.8hPa Calm   2mph /  3.2km/h 69% 0.00in /  0mm 0 W/m2
04:10 55.8 °F /  13.2 °C 46.1 °F /  7.8 °C 29.94in /  1013.8hPa North 1mph /  1.6km/h 4mph /  6.4km/h 70% 0.00in /  0mm 0 W/m2
04:20 55.2 °F /  12.9 °C 46.4 °F /  8 °C 29.95in /  1014.1hPa NW 1mph /  1.6km/h 3mph /  4.8km/h 72% 0.00in /  0mm 0 W/m2
04:30 54.7 °F /  12.6 °C 46.2 °F /  7.9 °C 29.96in /  1014.4hPa WSW 3mph /  4.8km/h 5mph /  8km/h 73% 0.00in /  0mm 0 W/m2
04:40 54.1 °F /  12.3 °C 46 °F /  7.8 °C 29.96in /  1014.4hPa WSW 5mph /  8km/h 7mph /  11.3km/h 74% 0.00in /  0mm 0 W/m2
04:50 54.5 °F /  12.5 °C 46.7 °F /  8.2 °C 29.97in /  1014.8hPa SW 7mph /  11.3km/h 11mph /  17.7km/h 75% 0.00in /  0mm 0 W/m2
05:00 54.5 °F /  12.5 °C 46.7 °F /  8.2 °C 29.97in /  1014.8hPa SW 5mph /  8km/h 8mph /  12.9km/h 75% 0.00in /  0mm 0 W/m2
05:10 54.1 °F /  12.3 °C 46.4 °F /  8 °C 29.98in /  1015.1hPa SW 5mph /  8km/h 8mph /  12.9km/h 75% 0.00in /  0mm 0 W/m2
05:20 53.6 °F /  12 °C 45.9 °F /  7.7 °C 29.98in /  1015.1hPa SW 5mph /  8km/h 9mph /  14.5km/h 75% 0.00in /  0mm 4 W/m2
05:30 53.2 °F /  11.8 °C 45.5 °F /  7.5 °C 29.99in /  1015.5hPa WSW 3mph /  4.8km/h 8mph /  12.9km/h 75% 0.00in /  0mm 10 W/m2
05:40 52.9 °F /  11.6 °C 45.9 °F /  7.7 °C 30.00in /  1015.8hPa SW 3mph /  4.8km/h 8mph /  12.9km/h 77% 0.00in /  0mm 18 W/m2
05:50 52.5 °F /  11.4 °C 45.5 °F /  7.5 °C 30.01in /  1016.1hPa West 6mph /  9.7km/h 9mph /  14.5km/h 77% 0.00in /  0mm 24 W/m2
06:00 52.2 °F /  11.2 °C 45.2 °F /  7.3 °C 30.01in /  1016.1hPa WSW 6mph /  9.7km/h 12mph /  19.3km/h 77% 0.00in /  0mm 16 W/m2
06:10 52.2 °F /  11.2 °C 45.2 °F /  7.3 °C 30.01in /  1016.1hPa WSW 5mph /  8km/h 10mph /  16.1km/h 77% 0.00in /  0mm 21 W/m2
06:20 52 °F /  11.1 °C 45 °F /  7.2 °C 30.02in /  1016.5hPa WSW 6mph /  9.7km/h 8mph /  12.9km/h 77% 0.00in /  0mm 37 W/m2
06:30 51.6 °F /  10.9 °C 44.6 °F /  7 °C 30.02in /  1016.5hPa WSW 8mph /  12.9km/h 12mph /  19.3km/h 77% 0.00in /  0mm 69 W/m2
06:40 51.3 °F /  10.7 °C 44.3 °F /  6.8 °C 30.03in /  1016.8hPa WSW 8mph /  12.9km/h 12mph /  19.3km/h 77% 0.00in /  0mm 69 W/m2
06:50 51.1 °F /  10.6 °C 44.1 °F /  6.7 °C 30.03in /  1016.8hPa WSW 5mph /  8km/h 12mph /  19.3km/h 77% 0.00in /  0mm 161 W/m2
Knjazevac, Serbia
Compliments of Weather Underground - 2 mb